sensor_id;sensor_type;location;lat;lon;timestamp;P1;durP1;ratioP1;P2;durP2;ratioP2
59300;SDS011;45073;52.740;6.784;2023-07-20T00:02:10;4.55;;;2.10;;
59300;SDS011;45073;52.740;6.784;2023-07-20T00:04:36;4.97;;;2.28;;
59300;SDS011;45073;52.740;6.784;2023-07-20T00:07:03;5.53;;;2.20;;
59300;SDS011;45073;52.740;6.784;2023-07-20T00:09:28;4.88;;;2.15;;
59300;SDS011;45073;52.740;6.784;2023-07-20T00:11:54;5.65;;;2.40;;
59300;SDS011;45073;52.740;6.784;2023-07-20T00:14:20;3.22;;;1.38;;
59300;SDS011;45073;52.740;6.784;2023-07-20T00:16:46;5.18;;;2.50;;
59300;SDS011;45073;52.740;6.784;2023-07-20T00:19:14;5.60;;;2.83;;
59300;SDS011;45073;52.740;6.784;2023-07-20T00:21:41;5.80;;;2.97;;
59300;SDS011;45073;52.740;6.784;2023-07-20T00:24:07;5.35;;;2.72;;
59300;SDS011;45073;52.740;6.784;2023-07-20T00:26:33;5.93;;;2.75;;
59300;SDS011;45073;52.740;6.784;2023-07-20T00:28:59;4.90;;;2.45;;
59300;SDS011;45073;52.740;6.784;2023-07-20T00:31:24;5.47;;;2.30;;
59300;SDS011;45073;52.740;6.784;2023-07-20T00:33:50;3.63;;;2.03;;
59300;SDS011;45073;52.740;6.784;2023-07-20T00:36:16;3.97;;;1.52;;
59300;SDS011;45073;52.740;6.784;2023-07-20T00:38:42;3.80;;;1.80;;
59300;SDS011;45073;52.740;6.784;2023-07-20T00:41:07;4.30;;;1.90;;
59300;SDS011;45073;52.740;6.784;2023-07-20T00:43:33;3.30;;;1.65;;
59300;SDS011;45073;52.740;6.784;2023-07-20T00:45:59;3.97;;;1.80;;
59300;SDS011;45073;52.740;6.784;2023-07-20T00:48:24;4.38;;;1.80;;
59300;SDS011;45073;52.740;6.784;2023-07-20T00:50:51;5.55;;;1.90;;
59300;SDS011;45073;52.740;6.784;2023-07-20T00:53:16;5.45;;;1.95;;
59300;SDS011;45073;52.740;6.784;2023-07-20T00:55:42;5.50;;;2.00;;
59300;SDS011;45073;52.740;6.784;2023-07-20T00:58:08;3.85;;;1.70;;
59300;SDS011;45073;52.740;6.784;2023-07-20T01:00:34;5.47;;;2.20;;
59300;SDS011;45073;52.740;6.784;2023-07-20T01:02:59;4.45;;;1.67;;
59300;SDS011;45073;52.740;6.784;2023-07-20T01:05:27;3.55;;;1.30;;
59300;SDS011;45073;52.740;6.784;2023-07-20T01:08:33;5.25;;;2.08;;
59300;SDS011;45073;52.740;6.784;2023-07-20T01:14:08;4.90;;;2.50;;
59300;SDS011;45073;52.740;6.784;2023-07-20T01:16:36;6.07;;;2.30;;
59300;SDS011;45073;52.740;6.784;2023-07-20T01:19:02;7.07;;;2.78;;
59300;SDS011;45073;52.740;6.784;2023-07-20T01:21:31;6.10;;;3.10;;
59300;SDS011;45073;52.740;6.784;2023-07-20T01:27:00;5.22;;;2.63;;
59300;SDS011;45073;52.740;6.784;2023-07-20T01:32:43;5.47;;;2.50;;
59300;SDS011;45073;52.740;6.784;2023-07-20T01:35:12;5.05;;;2.45;;
59300;SDS011;45073;52.740;6.784;2023-07-20T01:37:42;5.05;;;2.10;;
59300;SDS011;45073;52.740;6.784;2023-07-20T01:40:10;5.65;;;1.88;;
59300;SDS011;45073;52.740;6.784;2023-07-20T01:42:36;6.13;;;2.75;;
59300;SDS011;45073;52.740;6.784;2023-07-20T01:45:02;6.28;;;2.80;;
59300;SDS011;45073;52.740;6.784;2023-07-20T01:47:28;5.47;;;2.92;;
59300;SDS011;45073;52.740;6.784;2023-07-20T01:49:54;5.68;;;2.40;;
59300;SDS011;45073;52.740;6.784;2023-07-20T01:52:19;5.00;;;2.20;;
59300;SDS011;45073;52.740;6.784;2023-07-20T01:54:45;6.78;;;3.53;;
59300;SDS011;45073;52.740;6.784;2023-07-20T01:57:10;5.50;;;2.30;;
59300;SDS011;45073;52.740;6.784;2023-07-20T01:59:36;5.13;;;2.38;;
59300;SDS011;45073;52.740;6.784;2023-07-20T02:02:02;6.40;;;3.22;;
59300;SDS011;45073;52.740;6.784;2023-07-20T02:04:27;4.95;;;2.33;;
59300;SDS011;45073;52.740;6.784;2023-07-20T02:06:53;6.32;;;2.30;;
59300;SDS011;45073;52.740;6.784;2023-07-20T02:09:18;5.70;;;3.20;;
59300;SDS011;45073;52.740;6.784;2023-07-20T02:11:45;7.50;;;3.28;;
59300;SDS011;45073;52.740;6.784;2023-07-20T02:14:10;6.82;;;3.45;;
59300;SDS011;45073;52.740;6.784;2023-07-20T02:16:36;6.05;;;3.20;;
59300;SDS011;45073;52.740;6.784;2023-07-20T02:19:01;6.80;;;3.25;;
59300;SDS011;45073;52.740;6.784;2023-07-20T02:21:27;5.07;;;2.58;;
59300;SDS011;45073;52.740;6.784;2023-07-20T02:23:53;5.82;;;2.45;;
59300;SDS011;45073;52.740;6.784;2023-07-20T02:26:18;7.70;;;3.30;;
59300;SDS011;45073;52.740;6.784;2023-07-20T02:28:44;5.60;;;3.03;;
59300;SDS011;45073;52.740;6.784;2023-07-20T02:31:10;6.65;;;3.55;;
59300;SDS011;45073;52.740;6.784;2023-07-20T02:33:35;5.43;;;2.30;;
59300;SDS011;45073;52.740;6.784;2023-07-20T02:36:01;5.72;;;3.10;;
59300;SDS011;45073;52.740;6.784;2023-07-20T02:38:26;5.00;;;2.47;;
59300;SDS011;45073;52.740;6.784;2023-07-20T02:40:52;4.93;;;2.55;;
59300;SDS011;45073;52.740;6.784;2023-07-20T02:43:17;4.40;;;1.92;;
59300;SDS011;45073;52.740;6.784;2023-07-20T02:45:43;4.93;;;1.90;;
59300;SDS011;45073;52.740;6.784;2023-07-20T02:48:09;5.13;;;2.70;;
59300;SDS011;45073;52.740;6.784;2023-07-20T02:50:34;5.80;;;2.90;;
59300;SDS011;45073;52.740;6.784;2023-07-20T02:53:00;5.55;;;2.28;;
59300;SDS011;45073;52.740;6.784;2023-07-20T02:55:26;6.60;;;3.95;;
59300;SDS011;45073;52.740;6.784;2023-07-20T02:57:52;7.68;;;4.13;;
59300;SDS011;45073;52.740;6.784;2023-07-20T03:00:17;6.88;;;3.35;;
59300;SDS011;45073;52.740;6.784;2023-07-20T03:02:44;8.40;;;3.88;;
59300;SDS011;45073;52.740;6.784;2023-07-20T03:05:12;7.30;;;4.68;;
59300;SDS011;45073;52.740;6.784;2023-07-20T03:07:38;7.20;;;4.35;;
59300;SDS011;45073;52.740;6.784;2023-07-20T03:10:04;6.78;;;2.88;;
59300;SDS011;45073;52.740;6.784;2023-07-20T03:12:34;7.50;;;5.47;;
59300;SDS011;45073;52.740;6.784;2023-07-20T03:15:01;24.77;;;3.08;;
59300;SDS011;45073;52.740;6.784;2023-07-20T03:17:27;8.57;;;2.53;;
59300;SDS011;45073;52.740;6.784;2023-07-20T03:19:52;33.90;;;4.72;;
59300;SDS011;45073;52.740;6.784;2023-07-20T03:22:18;16.75;;;2.58;;
59300;SDS011;45073;52.740;6.784;2023-07-20T03:24:44;18.70;;;2.88;;
59300;SDS011;45073;52.740;6.784;2023-07-20T03:27:09;17.13;;;4.85;;
59300;SDS011;45073;52.740;6.784;2023-07-20T03:29:35;7.18;;;4.60;;
59300;SDS011;45073;52.740;6.784;2023-07-20T03:32:00;8.75;;;2.88;;
59300;SDS011;45073;52.740;6.784;2023-07-20T03:34:26;18.85;;;5.03;;
59300;SDS011;45073;52.740;6.784;2023-07-20T03:36:51;16.00;;;2.72;;
59300;SDS011;45073;52.740;6.784;2023-07-20T03:39:17;40.58;;;5.90;;
59300;SDS011;45073;52.740;6.784;2023-07-20T03:41:43;9.30;;;5.82;;
59300;SDS011;45073;52.740;6.784;2023-07-20T03:44:08;7.15;;;4.65;;
59300;SDS011;45073;52.740;6.784;2023-07-20T03:46:34;6.63;;;3.10;;
59300;SDS011;45073;52.740;6.784;2023-07-20T03:49:00;6.78;;;4.43;;
59300;SDS011;45073;52.740;6.784;2023-07-20T03:51:25;7.93;;;4.43;;
59300;SDS011;45073;52.740;6.784;2023-07-20T03:53:51;6.30;;;3.70;;
59300;SDS011;45073;52.740;6.784;2023-07-20T03:56:17;6.47;;;2.67;;
59300;SDS011;45073;52.740;6.784;2023-07-20T03:58:43;7.43;;;4.68;;
59300;SDS011;45073;52.740;6.784;2023-07-20T04:01:08;7.28;;;4.78;;
59300;SDS011;45073;52.740;6.784;2023-07-20T04:03:35;6.82;;;3.15;;
59300;SDS011;45073;52.740;6.784;2023-07-20T04:06:01;7.32;;;4.72;;
59300;SDS011;45073;52.740;6.784;2023-07-20T04:08:27;8.20;;;5.00;;
59300;SDS011;45073;52.740;6.784;2023-07-20T04:10:52;8.25;;;5.15;;
59300;SDS011;45073;52.740;6.784;2023-07-20T04:13:18;5.95;;;3.00;;
59300;SDS011;45073;52.740;6.784;2023-07-20T04:15:44;5.95;;;2.65;;
59300;SDS011;45073;52.740;6.784;2023-07-20T04:18:09;6.97;;;3.33;;
59300;SDS011;45073;52.740;6.784;2023-07-20T04:20:35;5.55;;;2.78;;
59300;SDS011;45073;52.740;6.784;2023-07-20T04:23:01;6.10;;;2.60;;
59300;SDS011;45073;52.740;6.784;2023-07-20T04:25:26;7.80;;;5.38;;
59300;SDS011;45073;52.740;6.784;2023-07-20T04:27:52;6.95;;;3.20;;
59300;SDS011;45073;52.740;6.784;2023-07-20T04:30:18;7.82;;;4.20;;
59300;SDS011;45073;52.740;6.784;2023-07-20T04:32:45;6.95;;;4.47;;
59300;SDS011;45073;52.740;6.784;2023-07-20T04:35:16;8.07;;;4.00;;
59300;SDS011;45073;52.740;6.784;2023-07-20T04:37:42;7.75;;;2.08;;
59300;SDS011;45073;52.740;6.784;2023-07-20T04:40:11;5.68;;;2.95;;
59300;SDS011;45073;52.740;6.784;2023-07-20T04:42:40;6.15;;;2.45;;
59300;SDS011;45073;52.740;6.784;2023-07-20T04:45:06;7.93;;;5.28;;
59300;SDS011;45073;52.740;6.784;2023-07-20T04:47:32;8.65;;;5.47;;
59300;SDS011;45073;52.740;6.784;2023-07-20T04:49:58;7.78;;;3.00;;
59300;SDS011;45073;52.740;6.784;2023-07-20T04:52:23;7.43;;;2.80;;
59300;SDS011;45073;52.740;6.784;2023-07-20T04:54:49;6.05;;;2.67;;
59300;SDS011;45073;52.740;6.784;2023-07-20T04:57:14;7.22;;;2.60;;
59300;SDS011;45073;52.740;6.784;2023-07-20T04:59:40;6.40;;;2.42;;
59300;SDS011;45073;52.740;6.784;2023-07-20T05:02:06;6.57;;;2.42;;
59300;SDS011;45073;52.740;6.784;2023-07-20T05:04:31;7.30;;;4.13;;
59300;SDS011;45073;52.740;6.784;2023-07-20T05:06:57;6.10;;;2.13;;
59300;SDS011;45073;52.740;6.784;2023-07-20T05:09:22;7.70;;;4.32;;
59300;SDS011;45073;52.740;6.784;2023-07-20T05:11:48;7.32;;;4.50;;
59300;SDS011;45073;52.740;6.784;2023-07-20T05:14:14;5.43;;;2.10;;
59300;SDS011;45073;52.740;6.784;2023-07-20T05:16:39;6.05;;;2.55;;
59300;SDS011;45073;52.740;6.784;2023-07-20T05:19:05;7.65;;;4.20;;
59300;SDS011;45073;52.740;6.784;2023-07-20T05:21:31;6.70;;;2.50;;
59300;SDS011;45073;52.740;6.784;2023-07-20T05:23:57;7.75;;;4.70;;
59300;SDS011;45073;52.740;6.784;2023-07-20T05:26:22;8.23;;;4.82;;
59300;SDS011;45073;52.740;6.784;2023-07-20T05:28:48;7.15;;;3.28;;
59300;SDS011;45073;52.740;6.784;2023-07-20T05:31:13;10.40;;;3.10;;
59300;SDS011;45073;52.740;6.784;2023-07-20T05:33:39;7.70;;;4.38;;
59300;SDS011;45073;52.740;6.784;2023-07-20T05:36:04;7.18;;;2.78;;
59300;SDS011;45073;52.740;6.784;2023-07-20T05:38:30;6.80;;;4.45;;
59300;SDS011;45073;52.740;6.784;2023-07-20T05:40:58;6.10;;;2.45;;
59300;SDS011;45073;52.740;6.784;2023-07-20T05:43:26;5.32;;;2.30;;
59300;SDS011;45073;52.740;6.784;2023-07-20T05:45:52;7.65;;;3.20;;
59300;SDS011;45073;52.740;6.784;2023-07-20T05:48:18;5.45;;;2.42;;
59300;SDS011;45073;52.740;6.784;2023-07-20T05:50:47;5.13;;;1.83;;
59300;SDS011;45073;52.740;6.784;2023-07-20T05:53:13;5.90;;;1.67;;
59300;SDS011;45073;52.740;6.784;2023-07-20T05:55:38;6.10;;;2.60;;
59300;SDS011;45073;52.740;6.784;2023-07-20T05:58:05;4.57;;;2.40;;
59300;SDS011;45073;52.740;6.784;2023-07-20T06:00:30;6.72;;;2.60;;
59300;SDS011;45073;52.740;6.784;2023-07-20T06:02:56;4.43;;;1.65;;
59300;SDS011;45073;52.740;6.784;2023-07-20T06:05:22;5.53;;;2.20;;
59300;SDS011;45073;52.740;6.784;2023-07-20T06:07:49;5.70;;;2.00;;
59300;SDS011;45073;52.740;6.784;2023-07-20T06:10:14;4.88;;;2.10;;
59300;SDS011;45073;52.740;6.784;2023-07-20T06:12:41;5.18;;;2.22;;
59300;SDS011;45073;52.740;6.784;2023-07-20T06:15:16;6.38;;;1.63;;
59300;SDS011;45073;52.740;6.784;2023-07-20T06:17:53;3.83;;;1.83;;
59300;SDS011;45073;52.740;6.784;2023-07-20T06:20:19;4.68;;;1.85;;
59300;SDS011;45073;52.740;6.784;2023-07-20T06:22:45;3.47;;;1.30;;
59300;SDS011;45073;52.740;6.784;2023-07-20T06:25:10;4.40;;;1.40;;
59300;SDS011;45073;52.740;6.784;2023-07-20T06:27:36;4.82;;;1.70;;
59300;SDS011;45073;52.740;6.784;2023-07-20T06:30:01;5.13;;;1.67;;
59300;SDS011;45073;52.740;6.784;2023-07-20T06:32:27;5.15;;;1.60;;
59300;SDS011;45073;52.740;6.784;2023-07-20T06:34:53;5.18;;;1.60;;
59300;SDS011;45073;52.740;6.784;2023-07-20T06:37:18;3.00;;;1.20;;
59300;SDS011;45073;52.740;6.784;2023-07-20T06:39:48;5.07;;;1.60;;
59300;SDS011;45073;52.740;6.784;2023-07-20T06:42:13;4.07;;;1.50;;
59300;SDS011;45073;52.740;6.784;2023-07-20T06:44:39;3.75;;;1.40;;
59300;SDS011;45073;52.740;6.784;2023-07-20T06:47:04;4.60;;;1.20;;
59300;SDS011;45073;52.740;6.784;2023-07-20T06:49:30;4.38;;;1.65;;
59300;SDS011;45073;52.740;6.784;2023-07-20T06:51:56;3.85;;;1.48;;
59300;SDS011;45073;52.740;6.784;2023-07-20T06:54:22;4.45;;;1.42;;
59300;SDS011;45073;52.740;6.784;2023-07-20T06:56:47;3.22;;;1.30;;
59300;SDS011;45073;52.740;6.784;2023-07-20T06:59:13;3.80;;;1.38;;
59300;SDS011;45073;52.740;6.784;2023-07-20T07:01:38;4.00;;;1.25;;
59300;SDS011;45073;52.740;6.784;2023-07-20T07:04:04;5.50;;;1.40;;
59300;SDS011;45073;52.740;6.784;2023-07-20T07:06:30;2.78;;;1.10;;
59300;SDS011;45073;52.740;6.784;2023-07-20T07:08:56;3.45;;;1.25;;
59300;SDS011;45073;52.740;6.784;2023-07-20T07:11:22;5.28;;;1.88;;
59300;SDS011;45073;52.740;6.784;2023-07-20T07:13:48;4.53;;;1.40;;
59300;SDS011;45073;52.740;6.784;2023-07-20T07:16:16;3.72;;;1.23;;
59300;SDS011;45073;52.740;6.784;2023-07-20T07:18:46;3.58;;;1.25;;
59300;SDS011;45073;52.740;6.784;2023-07-20T07:21:13;4.63;;;1.38;;
59300;SDS011;45073;52.740;6.784;2023-07-20T07:23:39;4.30;;;1.10;;
59300;SDS011;45073;52.740;6.784;2023-07-20T07:26:04;2.63;;;0.95;;
59300;SDS011;45073;52.740;6.784;2023-07-20T07:28:30;4.97;;;1.48;;
59300;SDS011;45073;52.740;6.784;2023-07-20T07:30:56;5.43;;;1.30;;
59300;SDS011;45073;52.740;6.784;2023-07-20T07:33:22;5.43;;;1.27;;
59300;SDS011;45073;52.740;6.784;2023-07-20T07:35:49;3.13;;;1.17;;
59300;SDS011;45073;52.740;6.784;2023-07-20T07:38:16;6.32;;;1.65;;
59300;SDS011;45073;52.740;6.784;2023-07-20T07:40:42;4.22;;;1.30;;
59300;SDS011;45073;52.740;6.784;2023-07-20T07:43:07;4.32;;;1.30;;
59300;SDS011;45073;52.740;6.784;2023-07-20T07:45:34;4.22;;;1.10;;
59300;SDS011;45073;52.740;6.784;2023-07-20T07:48:04;5.28;;;1.40;;
59300;SDS011;45073;52.740;6.784;2023-07-20T07:50:30;2.08;;;0.85;;
59300;SDS011;45073;52.740;6.784;2023-07-20T07:52:55;5.25;;;1.20;;
59300;SDS011;45073;52.740;6.784;2023-07-20T07:55:21;7.90;;;1.58;;
59300;SDS011;45073;52.740;6.784;2023-07-20T07:57:47;5.50;;;1.13;;
59300;SDS011;45073;52.740;6.784;2023-07-20T08:00:13;3.13;;;1.00;;
59300;SDS011;45073;52.740;6.784;2023-07-20T08:02:42;7.07;;;1.65;;
59300;SDS011;45073;52.740;6.784;2023-07-20T08:05:08;6.20;;;1.35;;
59300;SDS011;45073;52.740;6.784;2023-07-20T08:07:34;4.35;;;1.30;;
59300;SDS011;45073;52.740;6.784;2023-07-20T08:10:01;5.78;;;1.50;;
59300;SDS011;45073;52.740;6.784;2023-07-20T08:12:26;4.22;;;1.25;;
59300;SDS011;45073;52.740;6.784;2023-07-20T08:14:52;4.28;;;1.10;;
59300;SDS011;45073;52.740;6.784;2023-07-20T08:17:18;6.20;;;1.08;;
59300;SDS011;45073;52.740;6.784;2023-07-20T08:19:43;5.95;;;1.40;;
59300;SDS011;45073;52.740;6.784;2023-07-20T08:22:10;4.43;;;1.20;;
59300;SDS011;45073;52.740;6.784;2023-07-20T08:24:39;4.63;;;1.30;;
59300;SDS011;45073;52.740;6.784;2023-07-20T08:27:05;5.30;;;1.13;;
59300;SDS011;45073;52.740;6.784;2023-07-20T08:29:32;6.00;;;1.40;;
59300;SDS011;45073;52.740;6.784;2023-07-20T08:31:57;5.53;;;1.30;;
59300;SDS011;45073;52.740;6.784;2023-07-20T08:34:23;4.20;;;1.00;;
59300;SDS011;45073;52.740;6.784;2023-07-20T08:36:48;5.63;;;1.10;;
59300;SDS011;45073;52.740;6.784;2023-07-20T08:39:14;4.20;;;1.10;;
59300;SDS011;45073;52.740;6.784;2023-07-20T08:41:40;5.22;;;1.25;;
59300;SDS011;45073;52.740;6.784;2023-07-20T08:44:07;5.28;;;1.20;;
59300;SDS011;45073;52.740;6.784;2023-07-20T08:46:34;5.88;;;1.10;;
59300;SDS011;45073;52.740;6.784;2023-07-20T08:49:03;8.70;;;1.30;;
59300;SDS011;45073;52.740;6.784;2023-07-20T08:51:29;4.55;;;1.33;;
59300;SDS011;45073;52.740;6.784;2023-07-20T08:53:55;2.65;;;0.88;;
59300;SDS011;45073;52.740;6.784;2023-07-20T08:56:21;3.47;;;1.05;;
59300;SDS011;45073;52.740;6.784;2023-07-20T08:58:49;4.63;;;1.20;;
59300;SDS011;45073;52.740;6.784;2023-07-20T09:01:15;5.75;;;1.30;;
59300;SDS011;45073;52.740;6.784;2023-07-20T09:03:43;5.55;;;1.58;;
59300;SDS011;45073;52.740;6.784;2023-07-20T09:06:11;7.00;;;2.17;;
59300;SDS011;45073;52.740;6.784;2023-07-20T09:08:40;4.20;;;1.30;;
59300;SDS011;45073;52.740;6.784;2023-07-20T09:11:07;3.88;;;1.30;;
59300;SDS011;45073;52.740;6.784;2023-07-20T09:13:33;5.65;;;1.30;;
59300;SDS011;45073;52.740;6.784;2023-07-20T09:15:59;4.25;;;1.10;;
59300;SDS011;45073;52.740;6.784;2023-07-20T09:18:28;5.57;;;1.30;;
59300;SDS011;45073;52.740;6.784;2023-07-20T09:21:02;4.40;;;1.10;;
59300;SDS011;45073;52.740;6.784;2023-07-20T09:23:32;3.60;;;1.00;;
59300;SDS011;45073;52.740;6.784;2023-07-20T09:25:59;4.68;;;1.20;;
59300;SDS011;45073;52.740;6.784;2023-07-20T09:28:26;3.72;;;1.05;;
59300;SDS011;45073;52.740;6.784;2023-07-20T09:30:52;3.58;;;1.10;;
59300;SDS011;45073;52.740;6.784;2023-07-20T09:33:23;5.28;;;1.40;;
59300;SDS011;45073;52.740;6.784;2023-07-20T09:35:49;6.63;;;2.22;;
59300;SDS011;45073;52.740;6.784;2023-07-20T09:38:15;6.50;;;1.83;;
59300;SDS011;45073;52.740;6.784;2023-07-20T09:40:41;4.80;;;1.60;;
59300;SDS011;45073;52.740;6.784;2023-07-20T09:43:08;6.05;;;1.20;;
59300;SDS011;45073;52.740;6.784;2023-07-20T09:45:34;6.35;;;1.42;;
59300;SDS011;45073;52.740;6.784;2023-07-20T09:48:10;2.47;;;0.90;;
59300;SDS011;45073;52.740;6.784;2023-07-20T09:50:39;5.63;;;1.40;;
59300;SDS011;45073;52.740;6.784;2023-07-20T09:53:11;4.53;;;1.17;;
59300;SDS011;45073;52.740;6.784;2023-07-20T09:55:46;3.60;;;1.10;;
59300;SDS011;45073;52.740;6.784;2023-07-20T09:58:13;4.90;;;1.20;;
59300;SDS011;45073;52.740;6.784;2023-07-20T10:00:40;4.80;;;1.20;;
59300;SDS011;45073;52.740;6.784;2023-07-20T10:03:19;4.78;;;1.13;;
59300;SDS011;45073;52.740;6.784;2023-07-20T10:05:56;4.20;;;0.90;;
59300;SDS011;45073;52.740;6.784;2023-07-20T10:08:25;2.60;;;1.05;;
59300;SDS011;45073;52.740;6.784;2023-07-20T10:10:53;4.00;;;1.00;;
59300;SDS011;45073;52.740;6.784;2023-07-20T10:13:21;5.13;;;1.25;;
59300;SDS011;45073;52.740;6.784;2023-07-20T10:16:02;4.40;;;1.08;;
59300;SDS011;45073;52.740;6.784;2023-07-20T10:21:11;5.00;;;1.23;;
59300;SDS011;45073;52.740;6.784;2023-07-20T10:23:37;3.20;;;1.10;;
59300;SDS011;45073;52.740;6.784;2023-07-20T10:26:04;3.38;;;1.10;;
59300;SDS011;45073;52.740;6.784;2023-07-20T10:28:30;3.05;;;1.00;;
59300;SDS011;45073;52.740;6.784;2023-07-20T10:30:56;5.72;;;1.40;;
59300;SDS011;45073;52.740;6.784;2023-07-20T10:33:22;3.75;;;1.20;;
59300;SDS011;45073;52.740;6.784;2023-07-20T10:35:55;4.20;;;1.38;;
59300;SDS011;45073;52.740;6.784;2023-07-20T10:38:38;6.38;;;2.28;;
59300;SDS011;45073;52.740;6.784;2023-07-20T10:41:35;4.43;;;1.50;;
59300;SDS011;45073;52.740;6.784;2023-07-20T10:44:04;5.05;;;1.77;;
59300;SDS011;45073;52.740;6.784;2023-07-20T10:49:05;2.83;;;1.20;;
59300;SDS011;45073;52.740;6.784;2023-07-20T10:51:41;7.50;;;1.85;;
59300;SDS011;45073;52.740;6.784;2023-07-20T10:54:09;4.68;;;1.52;;
59300;SDS011;45073;52.740;6.784;2023-07-20T10:56:40;5.00;;;1.50;;
59300;SDS011;45073;52.740;6.784;2023-07-20T10:59:17;5.15;;;2.00;;
59300;SDS011;45073;52.740;6.784;2023-07-20T11:01:44;5.15;;;1.80;;
59300;SDS011;45073;52.740;6.784;2023-07-20T11:04:12;5.07;;;1.80;;
59300;SDS011;45073;52.740;6.784;2023-07-20T11:06:37;4.30;;;1.50;;
59300;SDS011;45073;52.740;6.784;2023-07-20T11:09:09;5.63;;;1.73;;
59300;SDS011;45073;52.740;6.784;2023-07-20T11:11:46;5.00;;;1.35;;
59300;SDS011;45073;52.740;6.784;2023-07-20T11:14:22;3.13;;;1.17;;
59300;SDS011;45073;52.740;6.784;2023-07-20T11:16:49;3.80;;;1.20;;
59300;SDS011;45073;52.740;6.784;2023-07-20T11:21:43;3.55;;;1.00;;
59300;SDS011;45073;52.740;6.784;2023-07-20T11:24:15;2.97;;;1.30;;
59300;SDS011;45073;52.740;6.784;2023-07-20T11:26:44;4.90;;;1.20;;
59300;SDS011;45073;52.740;6.784;2023-07-20T11:29:10;4.20;;;1.25;;
59300;SDS011;45073;52.740;6.784;2023-07-20T11:31:40;3.00;;;0.95;;
59300;SDS011;45073;52.740;6.784;2023-07-20T11:34:09;3.78;;;1.00;;
59300;SDS011;45073;52.740;6.784;2023-07-20T11:36:43;5.10;;;1.15;;
59300;SDS011;45073;52.740;6.784;2023-07-20T11:39:11;4.18;;;1.20;;
59300;SDS011;45073;52.740;6.784;2023-07-20T11:41:38;5.45;;;1.30;;
59300;SDS011;45073;52.740;6.784;2023-07-20T11:44:05;4.55;;;1.15;;
59300;SDS011;45073;52.740;6.784;2023-07-20T11:46:32;3.17;;;1.20;;
59300;SDS011;45073;52.740;6.784;2023-07-20T11:48:59;5.38;;;1.42;;
59300;SDS011;45073;52.740;6.784;2023-07-20T11:51:25;3.78;;;1.20;;
59300;SDS011;45073;52.740;6.784;2023-07-20T11:53:52;3.55;;;1.60;;
59300;SDS011;45073;52.740;6.784;2023-07-20T11:56:18;4.07;;;1.75;;
59300;SDS011;45073;52.740;6.784;2023-07-20T11:58:44;5.55;;;2.28;;
59300;SDS011;45073;52.740;6.784;2023-07-20T12:01:11;5.30;;;2.20;;
59300;SDS011;45073;52.740;6.784;2023-07-20T12:03:41;5.55;;;2.05;;
59300;SDS011;45073;52.740;6.784;2023-07-20T12:06:08;5.22;;;2.10;;
59300;SDS011;45073;52.740;6.784;2023-07-20T12:08:37;5.20;;;1.95;;
59300;SDS011;45073;52.740;6.784;2023-07-20T12:11:03;5.90;;;1.70;;
59300;SDS011;45073;52.740;6.784;2023-07-20T12:13:40;6.07;;;1.42;;
59300;SDS011;45073;52.740;6.784;2023-07-20T12:16:14;4.97;;;1.63;;
59300;SDS011;45073;52.740;6.784;2023-07-20T12:18:45;5.55;;;1.25;;
59300;SDS011;45073;52.740;6.784;2023-07-20T12:21:10;5.00;;;1.33;;
59300;SDS011;45073;52.740;6.784;2023-07-20T12:23:40;3.47;;;1.33;;
59300;SDS011;45073;52.740;6.784;2023-07-20T12:26:09;4.20;;;1.20;;
59300;SDS011;45073;52.740;6.784;2023-07-20T12:28:39;6.03;;;1.30;;
59300;SDS011;45073;52.740;6.784;2023-07-20T12:31:08;3.25;;;1.20;;
59300;SDS011;45073;52.740;6.784;2023-07-20T12:33:35;4.35;;;1.30;;
59300;SDS011;45073;52.740;6.784;2023-07-20T12:36:06;5.57;;;1.50;;
59300;SDS011;45073;52.740;6.784;2023-07-20T12:38:32;4.13;;;1.10;;
59300;SDS011;45073;52.740;6.784;2023-07-20T12:40:57;4.68;;;1.20;;
59300;SDS011;45073;52.740;6.784;2023-07-20T12:43:23;5.05;;;1.30;;
59300;SDS011;45073;52.740;6.784;2023-07-20T12:45:49;4.25;;;1.23;;
59300;SDS011;45073;52.740;6.784;2023-07-20T12:48:15;3.90;;;1.25;;
59300;SDS011;45073;52.740;6.784;2023-07-20T12:50:40;3.83;;;1.30;;
59300;SDS011;45073;52.740;6.784;2023-07-20T12:53:06;4.05;;;1.30;;
59300;SDS011;45073;52.740;6.784;2023-07-20T12:55:32;3.80;;;1.40;;
59300;SDS011;45073;52.740;6.784;2023-07-20T12:57:57;4.97;;;1.42;;
59300;SDS011;45073;52.740;6.784;2023-07-20T13:00:23;7.03;;;1.50;;
59300;SDS011;45073;52.740;6.784;2023-07-20T13:02:49;6.32;;;1.38;;
59300;SDS011;45073;52.740;6.784;2023-07-20T13:05:15;3.92;;;1.15;;
59300;SDS011;45073;52.740;6.784;2023-07-20T13:07:41;7.22;;;1.30;;
59300;SDS011;45073;52.740;6.784;2023-07-20T13:10:08;4.30;;;1.30;;
59300;SDS011;45073;52.740;6.784;2023-07-20T13:12:35;4.82;;;1.40;;
59300;SDS011;45073;52.740;6.784;2023-07-20T13:15:02;5.25;;;1.40;;
59300;SDS011;45073;52.740;6.784;2023-07-20T13:17:31;4.40;;;1.50;;
59300;SDS011;45073;52.740;6.784;2023-07-20T13:19:57;5.32;;;1.50;;
59300;SDS011;45073;52.740;6.784;2023-07-20T13:22:23;3.85;;;1.40;;
59300;SDS011;45073;52.740;6.784;2023-07-20T13:24:48;4.35;;;1.50;;
59300;SDS011;45073;52.740;6.784;2023-07-20T13:27:15;5.07;;;1.60;;
59300;SDS011;45073;52.740;6.784;2023-07-20T13:29:41;5.47;;;1.63;;
59300;SDS011;45073;52.740;6.784;2023-07-20T13:32:07;4.15;;;1.50;;
59300;SDS011;45073;52.740;6.784;2023-07-20T13:34:34;5.18;;;1.50;;
59300;SDS011;45073;52.740;6.784;2023-07-20T13:36:59;3.28;;;1.30;;
59300;SDS011;45073;52.740;6.784;2023-07-20T13:39:26;4.13;;;1.50;;
59300;SDS011;45073;52.740;6.784;2023-07-20T13:41:54;5.15;;;1.60;;
59300;SDS011;45073;52.740;6.784;2023-07-20T13:44:20;5.70;;;1.33;;
59300;SDS011;45073;52.740;6.784;2023-07-20T13:46:46;5.93;;;1.73;;
59300;SDS011;45073;52.740;6.784;2023-07-20T13:49:12;4.20;;;1.60;;
59300;SDS011;45073;52.740;6.784;2023-07-20T13:51:39;5.38;;;1.27;;
59300;SDS011;45073;52.740;6.784;2023-07-20T13:54:05;2.95;;;0.88;;
59300;SDS011;45073;52.740;6.784;2023-07-20T13:56:31;2.83;;;0.82;;
59300;SDS011;45073;52.740;6.784;2023-07-20T13:58:56;2.65;;;0.90;;
59300;SDS011;45073;52.740;6.784;2023-07-20T14:01:22;2.88;;;0.90;;
59300;SDS011;45073;52.740;6.784;2023-07-20T14:03:49;3.03;;;1.00;;
59300;SDS011;45073;52.740;6.784;2023-07-20T14:06:16;1.88;;;0.90;;
59300;SDS011;45073;52.740;6.784;2023-07-20T14:08:42;2.80;;;0.88;;
59300;SDS011;45073;52.740;6.784;2023-07-20T14:11:11;3.22;;;0.90;;
59300;SDS011;45073;52.740;6.784;2023-07-20T14:13:37;2.58;;;0.80;;
59300;SDS011;45073;52.740;6.784;2023-07-20T14:16:03;3.58;;;0.93;;
59300;SDS011;45073;52.740;6.784;2023-07-20T14:18:29;2.63;;;0.90;;
59300;SDS011;45073;52.740;6.784;2023-07-20T14:20:54;1.92;;;0.90;;
59300;SDS011;45073;52.740;6.784;2023-07-20T14:23:20;3.15;;;1.00;;
59300;SDS011;45073;52.740;6.784;2023-07-20T14:25:45;4.00;;;1.08;;
59300;SDS011;45073;52.740;6.784;2023-07-20T14:28:11;2.25;;;0.90;;
59300;SDS011;45073;52.740;6.784;2023-07-20T14:30:37;3.30;;;1.20;;
59300;SDS011;45073;52.740;6.784;2023-07-20T14:33:03;4.50;;;0.95;;
59300;SDS011;45073;52.740;6.784;2023-07-20T14:35:29;4.35;;;1.10;;
59300;SDS011;45073;52.740;6.784;2023-07-20T14:37:54;3.78;;;1.08;;
59300;SDS011;45073;52.740;6.784;2023-07-20T14:40:20;2.63;;;1.00;;
59300;SDS011;45073;52.740;6.784;2023-07-20T14:42:46;3.00;;;0.90;;
59300;SDS011;45073;52.740;6.784;2023-07-20T14:45:11;2.45;;;1.10;;
59300;SDS011;45073;52.740;6.784;2023-07-20T14:47:37;4.47;;;1.23;;
59300;SDS011;45073;52.740;6.784;2023-07-20T14:50:03;3.88;;;1.50;;
59300;SDS011;45073;52.740;6.784;2023-07-20T14:52:29;4.70;;;1.00;;
59300;SDS011;45073;52.740;6.784;2023-07-20T14:54:55;2.90;;;1.25;;
59300;SDS011;45073;52.740;6.784;2023-07-20T14:57:21;5.68;;;1.70;;
59300;SDS011;45073;52.740;6.784;2023-07-20T14:59:48;5.80;;;1.80;;
59300;SDS011;45073;52.740;6.784;2023-07-20T15:02:14;5.65;;;2.05;;
59300;SDS011;45073;52.740;6.784;2023-07-20T15:04:50;4.95;;;1.60;;